Time;durP1;ratioP1;P1;durP2;ratioP2;P2;SDS_P1;SDS_P2;PMS_P1;PMS_P2;Temp;Humidity;BMP_temperature;BMP_pressure;BME280_temperature;BME280_humidity;BME280_pressure;Samples;Min_cycle;Max_cycle;Signal;HPM_P1;HPM_P2
2022/04/06 00:01:59;;;;;;;;;;;21.10;32.40;;;;;;465640;256;2205;-39
2022/04/06 00:04:00;;;;;;;;;;;21.10;32.40;;;;;;465902;256;1109;-39
2022/04/06 00:06:02;;;;;;;;;;;21.10;32.30;;;;;;465561;256;1196;-39
2022/04/06 00:08:03;;;;;;;;;;;21.10;32.30;;;;;;465974;256;1207;-39
2022/04/06 00:10:04;;;;;;;;;;;21.10;32.30;;;;;;465993;256;1335;-39
2022/04/06 00:12:06;;;;;;;;;;;21.10;32.30;;;;;;465618;256;1085;-39
2022/04/06 00:14:07;;;;;;;;;;;21.10;32.30;;;;;;465725;256;1107;-39
2022/04/06 00:16:08;;;;;;;;;;;21.10;32.30;;;;;;465931;256;1448;-39
2022/04/06 00:18:10;;;;;;;;;;;21.10;32.30;;;;;;465572;256;1074;-39
2022/04/06 00:20:11;;;;;;;;;;;21.10;32.30;;;;;;465606;256;1202;-39
2022/04/06 00:22:12;;;;;;;;;;;21.10;32.40;;;;;;465945;256;2146;-39
2022/04/06 00:24:14;;;;;;;;;;;21.10;32.50;;;;;;465918;256;1001;-39
2022/04/06 00:26:15;;;;;;;;;;;21.10;32.40;;;;;;465928;256;1563;-39
2022/04/06 00:28:16;;;;;;;;;;;21.10;32.40;;;;;;465593;256;1207;-39
2022/04/06 00:30:18;;;;;;;;;;;21.10;32.40;;;;;;465990;256;1141;-39
2022/04/06 00:32:20;;;;;;;;;;;21.10;32.40;;;;;;465615;256;1304;-39
2022/04/06 00:35:28;;;;;;;;;;;21.10;32.40;;;;;;465971;256;2150;-39
2022/04/06 00:36:22;;;;;;;;;;;21.10;32.40;;;;;;464127;256;1922;-39
2022/04/06 00:38:23;;;;;;;;;;;21.10;32.40;;;;;;465995;256;1077;-39
2022/04/06 00:40:24;;;;;;;;;;;21.10;32.50;;;;;;465621;256;1110;-39
2022/04/06 00:42:26;;;;;;;;;;;21.00;32.40;;;;;;465466;256;2205;-39
2022/04/06 00:44:28;;;;;;;;;;;21.10;32.40;;;;;;465845;256;1065;-39
2022/04/06 00:46:28;;;;;;;;;;;21.10;32.40;;;;;;465879;256;2002;-39
2022/04/06 00:48:30;;;;;;;;;;;21.10;32.40;;;;;;465607;256;1247;-39
2022/04/06 00:50:31;;;;;;;;;;;21.10;32.40;;;;;;465866;256;1166;-39
2022/04/06 00:52:32;;;;;;;;;;;21.10;32.50;;;;;;465522;256;1668;-39
2022/04/06 00:54:34;;;;;;;;;;;21.10;32.40;;;;;;466028;256;1079;-39
2022/04/06 00:56:35;;;;;;;;;;;21.10;32.50;;;;;;465738;256;1358;-39
2022/04/06 00:58:36;;;;;;;;;;;21.00;32.40;;;;;;465892;256;1105;-39
2022/04/06 01:00:37;;;;;;;;;;;21.10;32.50;;;;;;465735;256;1044;-39
2022/04/06 01:02:39;;;;;;;;;;;21.10;32.40;;;;;;465957;256;2155;-39
2022/04/06 01:04:40;;;;;;;;;;;21.00;32.50;;;;;;465549;256;1118;-39
2022/04/06 01:06:41;;;;;;;;;;;21.10;32.50;;;;;;465471;255;1232;-39
2022/04/06 01:08:43;;;;;;;;;;;21.10;32.50;;;;;;466009;256;1259;-39
2022/04/06 01:10:44;;;;;;;;;;;21.10;32.50;;;;;;465865;256;1090;-39
2022/04/06 01:12:46;;;;;;;;;;;21.00;32.50;;;;;;465960;256;1137;-39
2022/04/06 01:14:47;;;;;;;;;;;21.10;32.50;;;;;;465996;256;1157;-39
2022/04/06 01:16:48;;;;;;;;;;;21.10;32.50;;;;;;465686;256;1215;-39
2022/04/06 01:18:50;;;;;;;;;;;21.10;32.50;;;;;;466015;256;1072;-39
2022/04/06 01:20:51;;;;;;;;;;;21.10;32.50;;;;;;465861;256;1234;-39
2022/04/06 01:22:52;;;;;;;;;;;21.10;32.50;;;;;;465952;256;2225;-39
2022/04/06 01:24:53;;;;;;;;;;;21.10;32.50;;;;;;466019;256;1084;-39
2022/04/06 01:26:55;;;;;;;;;;;21.00;32.50;;;;;;465890;256;1354;-39
2022/04/06 01:28:56;;;;;;;;;;;21.00;32.50;;;;;;465606;256;1088;-39
2022/04/06 01:30:57;;;;;;;;;;;21.00;32.50;;;;;;465946;256;1188;-39
2022/04/06 01:32:59;;;;;;;;;;;21.00;32.50;;;;;;465953;256;1165;-39
2022/04/06 01:35:00;;;;;;;;;;;21.00;32.50;;;;;;465544;256;1107;-39
2022/04/06 01:37:01;;;;;;;;;;;21.00;32.50;;;;;;465521;256;1283;-39
2022/04/06 01:39:03;;;;;;;;;;;21.10;32.60;;;;;;465640;256;1004;-39
2022/04/06 01:41:04;;;;;;;;;;;21.10;32.50;;;;;;465944;256;1226;-39
2022/04/06 01:43:05;;;;;;;;;;;21.10;32.50;;;;;;465566;256;2201;-39
2022/04/06 01:45:07;;;;;;;;;;;21.10;32.50;;;;;;465603;256;1081;-39
2022/04/06 01:47:08;;;;;;;;;;;21.10;32.60;;;;;;465898;256;1232;-39
2022/04/06 01:53:50;;;;;;;;;;;21.10;32.50;;;;;;465561;256;1251;-39
2022/04/06 01:55:49;;;;;;;;;;;21.10;32.50;;;;;;465627;255;2053;-39
2022/04/06 01:57:50;;;;;;;;;;;21.00;32.50;;;;;;465547;256;1077;-39
2022/04/06 01:59:52;;;;;;;;;;;21.10;32.50;;;;;;465953;256;1103;-39
2022/04/06 02:01:53;;;;;;;;;;;21.10;32.50;;;;;;465967;256;1314;-39
2022/04/06 02:03:54;;;;;;;;;;;21.10;32.50;;;;;;466009;256;2123;-39
2022/04/06 02:05:56;;;;;;;;;;;21.10;32.60;;;;;;465908;256;1242;-39
2022/04/06 02:07:57;;;;;;;;;;;21.10;32.50;;;;;;465553;256;1282;-39
2022/04/06 02:10:00;;;;;;;;;;;21.10;32.50;;;;;;465982;256;1065;-39
2022/04/06 02:12:00;;;;;;;;;;;21.10;32.50;;;;;;465809;256;2019;-39
2022/04/06 02:14:01;;;;;;;;;;;21.10;32.50;;;;;;465973;256;1094;-39
2022/04/06 02:16:03;;;;;;;;;;;21.10;32.50;;;;;;465522;256;1352;-39
2022/04/06 02:18:04;;;;;;;;;;;21.10;32.50;;;;;;465952;256;1317;-39
2022/04/06 02:20:05;;;;;;;;;;;21.10;32.50;;;;;;466000;256;1095;-39
2022/04/06 02:22:06;;;;;;;;;;;21.10;32.50;;;;;;465656;256;2167;-39
2022/04/06 02:24:08;;;;;;;;;;;21.10;32.60;;;;;;465726;256;1210;-39
2022/04/06 02:26:09;;;;;;;;;;;21.00;32.50;;;;;;465684;256;1389;-39
2022/04/06 02:28:10;;;;;;;;;;;21.10;32.60;;;;;;465717;256;1100;-39
2022/04/06 02:30:12;;;;;;;;;;;21.10;32.60;;;;;;465763;256;1108;-39
2022/04/06 02:32:13;;;;;;;;;;;21.00;32.60;;;;;;465460;256;1547;-39
2022/04/06 02:34:14;;;;;;;;;;;21.10;32.60;;;;;;465852;256;1219;-39
2022/04/06 02:36:16;;;;;;;;;;;21.10;32.50;;;;;;465517;256;1241;-39
2022/04/06 02:38:17;;;;;;;;;;;21.10;32.50;;;;;;465606;256;1290;-39
2022/04/06 02:40:18;;;;;;;;;;;21.00;32.60;;;;;;465961;256;1181;-39
2022/04/06 02:42:20;;;;;;;;;;;21.00;32.60;;;;;;465907;256;2143;-39
2022/04/06 02:44:21;;;;;;;;;;;21.10;32.60;;;;;;466026;256;1093;-39
2022/04/06 02:46:22;;;;;;;;;;;21.10;32.60;;;;;;465959;256;1162;-39
2022/04/06 02:48:23;;;;;;;;;;;21.10;32.60;;;;;;466003;256;1254;-39
2022/04/06 02:50:25;;;;;;;;;;;21.00;32.60;;;;;;465613;256;1027;-39
2022/04/06 02:52:26;;;;;;;;;;;21.10;32.60;;;;;;465805;256;1342;-39
2022/04/06 02:54:27;;;;;;;;;;;21.00;32.50;;;;;;466006;256;1222;-39
2022/04/06 02:56:29;;;;;;;;;;;21.00;32.60;;;;;;465994;256;1309;-39
2022/04/06 02:58:31;;;;;;;;;;;21.10;32.60;;;;;;466025;256;1073;-39
2022/04/06 03:00:33;;;;;;;;;;;21.10;32.60;;;;;;465949;256;1378;-39
2022/04/06 03:02:34;;;;;;;;;;;21.10;32.60;;;;;;465566;256;2198;-39
2022/04/06 03:04:35;;;;;;;;;;;21.10;32.60;;;;;;465624;256;1113;-39
2022/04/06 03:06:37;;;;;;;;;;;21.10;32.60;;;;;;465877;256;1097;-39
2022/04/06 03:08:38;;;;;;;;;;;21.10;32.60;;;;;;465660;256;1183;-39
2022/04/06 03:10:39;;;;;;;;;;;21.10;32.50;;;;;;465590;256;1122;-39
2022/04/06 03:12:41;;;;;;;;;;;21.10;32.50;;;;;;465975;256;1110;-39
2022/04/06 03:14:42;;;;;;;;;;;21.10;32.60;;;;;;465570;256;1603;-39
2022/04/06 03:16:43;;;;;;;;;;;21.10;32.60;;;;;;465874;256;1364;-39
2022/04/06 03:18:45;;;;;;;;;;;21.10;32.60;;;;;;465626;256;1069;-39
2022/04/06 03:20:46;;;;;;;;;;;21.00;32.60;;;;;;465595;256;1233;-39
2022/04/06 03:22:47;;;;;;;;;;;21.00;32.60;;;;;;465679;256;2194;-39
2022/04/06 03:24:49;;;;;;;;;;;21.00;32.60;;;;;;466033;256;1138;-39
2022/04/06 03:26:50;;;;;;;;;;;21.10;32.60;;;;;;465563;256;1646;-39
2022/04/06 03:28:51;;;;;;;;;;;21.10;32.60;;;;;;465993;256;1059;-39
2022/04/06 03:30:53;;;;;;;;;;;21.10;32.60;;;;;;465908;256;1395;-39
2022/04/06 03:32:54;;;;;;;;;;;21.10;32.60;;;;;;465758;256;1229;-39
2022/04/06 03:34:55;;;;;;;;;;;21.10;32.60;;;;;;465684;256;1069;-39
2022/04/06 03:36:57;;;;;;;;;;;21.10;32.60;;;;;;465922;256;1057;-39
2022/04/06 03:38:58;;;;;;;;;;;21.00;32.60;;;;;;465663;256;1216;-39
2022/04/06 03:40:59;;;;;;;;;;;21.00;32.60;;;;;;465494;256;1215;-39
2022/04/06 03:43:01;;;;;;;;;;;21.10;32.70;;;;;;465583;256;2130;-39
2022/04/06 03:45:02;;;;;;;;;;;21.10;32.70;;;;;;465593;256;1115;-39
2022/04/06 03:47:03;;;;;;;;;;;21.10;32.60;;;;;;465533;256;1082;-39
2022/04/06 03:49:04;;;;;;;;;;;21.10;32.60;;;;;;466031;256;1084;-39
2022/04/06 03:51:06;;;;;;;;;;;21.00;32.60;;;;;;465581;256;1253;-39
2022/04/06 03:53:07;;;;;;;;;;;21.10;32.70;;;;;;465821;256;1175;-39
2022/04/06 03:55:08;;;;;;;;;;;21.10;32.70;;;;;;465683;256;1240;-39
2022/04/06 03:57:10;;;;;;;;;;;21.10;32.70;;;;;;465857;256;1099;-39
2022/04/06 03:59:11;;;;;;;;;;;21.10;32.70;;;;;;465844;256;1073;-39
2022/04/06 04:01:12;;;;;;;;;;;21.10;32.60;;;;;;465524;256;1493;-39
2022/04/06 04:03:14;;;;;;;;;;;21.10;32.60;;;;;;465534;256;2139;-39
2022/04/06 04:05:15;;;;;;;;;;;21.10;32.60;;;;;;465860;256;1150;-39
2022/04/06 04:07:16;;;;;;;;;;;21.10;32.70;;;;;;465465;256;1166;-39
2022/04/06 04:09:18;;;;;;;;;;;21.00;32.70;;;;;;465643;256;1197;-39
2022/04/06 04:11:19;;;;;;;;;;;21.00;32.70;;;;;;465511;256;1164;-39
2022/04/06 04:13:20;;;;;;;;;;;21.00;32.70;;;;;;465930;256;1111;-39
2022/04/06 04:15:22;;;;;;;;;;;21.00;32.70;;;;;;465843;256;1446;-39
2022/04/06 04:17:23;;;;;;;;;;;21.00;32.70;;;;;;465629;256;1155;-39
2022/04/06 04:19:24;;;;;;;;;;;21.10;32.70;;;;;;465818;256;1063;-39
2022/04/06 04:21:32;;;;;;;;;;;21.00;32.70;;;;;;465840;256;1388;-39
2022/04/06 04:23:33;;;;;;;;;;;21.00;32.70;;;;;;465470;256;2189;-39
2022/04/06 04:25:34;;;;;;;;;;;21.00;32.70;;;;;;465422;256;1088;-39
2022/04/06 04:27:36;;;;;;;;;;;21.00;32.70;;;;;;465425;256;1163;-39
2022/04/06 04:29:38;;;;;;;;;;;21.10;32.70;;;;;;465327;256;1189;-39
2022/04/06 04:31:39;;;;;;;;;;;21.10;32.70;;;;;;465356;256;1154;-39
2022/04/06 04:33:41;;;;;;;;;;;21.10;32.60;;;;;;465478;256;1060;-39
2022/04/06 04:35:42;;;;;;;;;;;21.10;32.60;;;;;;465476;256;1114;-39
2022/04/06 04:37:43;;;;;;;;;;;21.10;32.60;;;;;;465409;256;1078;-39
2022/04/06 04:39:44;;;;;;;;;;;21.10;32.60;;;;;;465517;256;1221;-39
2022/04/06 04:41:46;;;;;;;;;;;21.10;32.70;;;;;;465504;256;1061;-39
2022/04/06 04:43:47;;;;;;;;;;;21.10;32.70;;;;;;465646;256;2217;-39
2022/04/06 04:45:48;;;;;;;;;;;21.10;32.70;;;;;;465807;256;1240;-39
2022/04/06 04:47:49;;;;;;;;;;;21.10;32.70;;;;;;465755;256;1198;-39
2022/04/06 04:49:51;;;;;;;;;;;21.10;32.70;;;;;;465833;256;1150;-39
2022/04/06 04:51:52;;;;;;;;;;;21.10;32.70;;;;;;465647;256;1073;-39
2022/04/06 04:53:54;;;;;;;;;;;21.10;32.80;;;;;;465411;256;1176;-39
2022/04/06 04:55:55;;;;;;;;;;;21.10;32.70;;;;;;465638;256;2688;-39
2022/04/06 04:57:56;;;;;;;;;;;21.10;32.80;;;;;;465372;256;1238;-39
2022/04/06 04:59:57;;;;;;;;;;;21.10;32.70;;;;;;465480;256;1110;-39
2022/04/06 05:01:59;;;;;;;;;;;21.00;32.70;;;;;;465309;256;1263;-39
2022/04/06 05:04:00;;;;;;;;;;;21.10;32.70;;;;;;465289;256;2210;-39
2022/04/06 05:06:01;;;;;;;;;;;21.10;32.60;;;;;;465210;256;1329;-39
2022/04/06 05:08:03;;;;;;;;;;;21.10;32.60;;;;;;465538;256;1135;-39
2022/04/06 05:10:04;;;;;;;;;;;21.10;32.60;;;;;;465400;256;1141;-39
2022/04/06 05:12:05;;;;;;;;;;;21.10;32.70;;;;;;465594;256;1180;-39
2022/04/06 05:14:07;;;;;;;;;;;21.10;32.70;;;;;;465399;256;1090;-39
2022/04/06 05:16:08;;;;;;;;;;;21.10;32.70;;;;;;465551;256;1356;-39
2022/04/06 05:18:09;;;;;;;;;;;21.10;32.70;;;;;;465762;256;1053;-39
2022/04/06 05:20:11;;;;;;;;;;;21.10;32.70;;;;;;465542;256;1486;-39
2022/04/06 05:22:12;;;;;;;;;;;21.10;32.80;;;;;;465224;256;1084;-39
2022/04/06 05:24:13;;;;;;;;;;;21.10;32.70;;;;;;465306;256;2141;-39
2022/04/06 05:26:15;;;;;;;;;;;21.10;32.70;;;;;;465461;256;1257;-39
2022/04/06 05:28:16;;;;;;;;;;;21.10;32.70;;;;;;465407;256;1065;-39
2022/04/06 05:30:17;;;;;;;;;;;21.10;32.70;;;;;;465295;256;1547;-39
2022/04/06 05:32:19;;;;;;;;;;;21.10;32.70;;;;;;465324;256;1089;-39
2022/04/06 05:34:20;;;;;;;;;;;21.10;32.70;;;;;;465463;256;1076;-39
2022/04/06 05:36:23;;;;;;;;;;;21.10;32.70;;;;;;465208;256;1389;-39
2022/04/06 05:38:22;;;;;;;;;;;21.10;32.60;;;;;;465112;256;2305;-39
2022/04/06 05:40:24;;;;;;;;;;;21.10;32.70;;;;;;465228;256;1196;-39
2022/04/06 05:42:25;;;;;;;;;;;21.10;32.70;;;;;;465122;256;1312;-39
2022/04/06 05:44:26;;;;;;;;;;;21.10;32.70;;;;;;465424;256;2122;-39
2022/04/06 05:46:29;;;;;;;;;;;21.10;32.70;;;;;;465025;256;1498;-39
2022/04/06 05:48:29;;;;;;;;;;;21.10;32.70;;;;;;465132;256;2104;-39
2022/04/06 05:50:30;;;;;;;;;;;21.10;32.80;;;;;;465364;256;1031;-39
2022/04/06 05:52:32;;;;;;;;;;;21.10;32.70;;;;;;465159;256;1602;-39
2022/04/06 05:54:33;;;;;;;;;;;21.10;32.80;;;;;;465396;256;1421;-39
2022/04/06 05:56:34;;;;;;;;;;;21.10;32.80;;;;;;465217;256;1738;-39
2022/04/06 05:58:36;;;;;;;;;;;21.10;32.80;;;;;;465355;256;1119;-39
2022/04/06 06:00:38;;;;;;;;;;;21.10;32.80;;;;;;465076;256;1141;-39
2022/04/06 06:02:38;;;;;;;;;;;21.10;32.80;;;;;;465130;256;1882;-39
2022/04/06 06:04:40;;;;;;;;;;;21.00;32.80;;;;;;465237;256;2119;-39
2022/04/06 06:06:41;;;;;;;;;;;21.10;32.80;;;;;;465220;256;1114;-39
2022/04/06 06:08:42;;;;;;;;;;;21.10;32.70;;;;;;465171;256;1082;-39
2022/04/06 06:10:43;;;;;;;;;;;21.10;32.80;;;;;;465072;256;1218;-39
2022/04/06 06:12:45;;;;;;;;;;;21.10;32.70;;;;;;465310;256;1175;-39
2022/04/06 06:14:46;;;;;;;;;;;21.10;32.80;;;;;;465200;256;1081;-39
2022/04/06 06:16:49;;;;;;;;;;;21.10;32.70;;;;;;465174;256;1249;-39
2022/04/06 06:18:49;;;;;;;;;;;21.10;32.70;;;;;;464928;256;2288;-39
2022/04/06 06:20:50;;;;;;;;;;;21.10;32.70;;;;;;465145;256;1179;-39
2022/04/06 06:22:52;;;;;;;;;;;21.10;32.80;;;;;;465060;256;1222;-39
2022/04/06 06:24:53;;;;;;;;;;;21.10;32.80;;;;;;464978;256;2119;-39
2022/04/06 06:26:54;;;;;;;;;;;21.10;32.80;;;;;;464934;256;1254;-39
2022/04/06 06:28:56;;;;;;;;;;;21.10;32.70;;;;;;464898;256;1106;-39
2022/04/06 06:30:57;;;;;;;;;;;21.10;32.80;;;;;;464940;256;1229;-39
2022/04/06 06:32:58;;;;;;;;;;;21.10;32.80;;;;;;464993;256;1221;-39
2022/04/06 06:35:00;;;;;;;;;;;21.20;32.80;;;;;;465231;256;1130;-39
2022/04/06 06:37:01;;;;;;;;;;;21.10;32.80;;;;;;465109;256;1357;-39
2022/04/06 06:39:02;;;;;;;;;;;21.20;32.90;;;;;;464990;256;1208;-39
2022/04/06 06:41:04;;;;;;;;;;;21.10;32.90;;;;;;464901;256;1604;-39
2022/04/06 06:43:05;;;;;;;;;;;21.10;32.90;;;;;;465301;256;1165;-39
2022/04/06 06:45:06;;;;;;;;;;;21.10;32.90;;;;;;464889;256;2197;-39
2022/04/06 06:47:07;;;;;;;;;;;21.10;32.90;;;;;;465115;256;1219;-39
2022/04/06 06:49:10;;;;;;;;;;;21.10;33.00;;;;;;465079;256;1103;-39
2022/04/06 06:51:10;;;;;;;;;;;21.10;33.00;;;;;;464810;256;2251;-39
2022/04/06 06:53:11;;;;;;;;;;;21.10;33.00;;;;;;464814;256;1296;-39
2022/04/06 06:55:13;;;;;;;;;;;21.10;33.00;;;;;;464805;256;1216;-39
2022/04/06 06:57:14;;;;;;;;;;;21.10;32.90;;;;;;464856;256;1317;-39
2022/04/06 06:59:15;;;;;;;;;;;21.10;33.00;;;;;;464801;256;1112;-39
2022/04/06 07:01:17;;;;;;;;;;;21.20;33.00;;;;;;464668;256;1340;-39
2022/04/06 07:03:18;;;;;;;;;;;21.10;33.00;;;;;;464834;256;1162;-39
2022/04/06 07:05:19;;;;;;;;;;;21.10;33.10;;;;;;464893;256;2202;-39
2022/04/06 07:07:21;;;;;;;;;;;21.10;33.00;;;;;;465152;256;1588;-39
2022/04/06 07:09:22;;;;;;;;;;;21.10;33.00;;;;;;464807;256;1182;-39
2022/04/06 07:11:23;;;;;;;;;;;21.10;33.00;;;;;;464753;256;1383;-39
2022/04/06 07:13:25;;;;;;;;;;;21.10;33.10;;;;;;464694;256;1251;-39
2022/04/06 07:15:26;;;;;;;;;;;21.10;33.10;;;;;;464697;255;1235;-39
2022/04/06 07:17:27;;;;;;;;;;;21.10;33.20;;;;;;464670;256;1247;-39
2022/04/06 07:19:28;;;;;;;;;;;21.10;33.20;;;;;;464920;256;1333;-39
2022/04/06 07:21:30;;;;;;;;;;;21.10;33.20;;;;;;464815;256;1139;-39
2022/04/06 07:23:31;;;;;;;;;;;21.10;33.20;;;;;;464916;256;1256;-39
2022/04/06 07:25:32;;;;;;;;;;;21.10;33.20;;;;;;464921;256;2186;-39
2022/04/06 07:27:34;;;;;;;;;;;21.10;33.20;;;;;;464768;256;1116;-39
2022/04/06 07:29:36;;;;;;;;;;;21.10;33.30;;;;;;464792;256;1170;-39
2022/04/06 07:31:37;;;;;;;;;;;21.10;33.30;;;;;;464921;256;1237;-39
2022/04/06 07:33:40;;;;;;;;;;;21.10;33.30;;;;;;465513;256;861;-39
2022/04/06 07:35:40;;;;;;;;;;;21.10;33.30;;;;;;464921;256;2320;-39
2022/04/06 07:37:41;;;;;;;;;;;21.10;33.20;;;;;;465240;256;1063;-39
2022/04/06 07:39:43;;;;;;;;;;;21.10;33.40;;;;;;464866;256;1094;-39
2022/04/06 07:41:44;;;;;;;;;;;21.10;33.40;;;;;;464780;256;1317;-39
2022/04/06 07:43:45;;;;;;;;;;;21.00;33.40;;;;;;464923;256;1097;-39
2022/04/06 07:45:46;;;;;;;;;;;21.10;33.40;;;;;;464577;256;2232;-39
2022/04/06 07:47:48;;;;;;;;;;;21.10;33.40;;;;;;464771;256;1187;-39
2022/04/06 07:49:50;;;;;;;;;;;21.10;33.30;;;;;;464808;256;1217;-39
2022/04/06 07:51:50;;;;;;;;;;;21.10;33.30;;;;;;464692;256;1716;-39
2022/04/06 07:53:52;;;;;;;;;;;21.10;33.30;;;;;;464783;256;1079;-39
2022/04/06 07:55:53;;;;;;;;;;;21.10;33.30;;;;;;464684;256;1199;-39
2022/04/06 07:57:54;;;;;;;;;;;21.10;33.40;;;;;;464607;256;1137;-39
2022/04/06 07:59:56;;;;;;;;;;;21.10;33.40;;;;;;464839;256;1213;-39
2022/04/06 08:01:57;;;;;;;;;;;21.10;33.40;;;;;;464691;256;1262;-39
2022/04/06 08:03:58;;;;;;;;;;;21.10;33.40;;;;;;464638;256;1094;-39
2022/04/06 08:05:59;;;;;;;;;;;21.10;33.30;;;;;;464509;256;2193;-39
2022/04/06 08:08:01;;;;;;;;;;;21.10;33.30;;;;;;464685;256;1111;-39
2022/04/06 08:10:02;;;;;;;;;;;21.10;33.40;;;;;;464827;256;1185;-39
2022/04/06 08:12:03;;;;;;;;;;;21.10;33.40;;;;;;464720;256;1248;-39
2022/04/06 08:14:05;;;;;;;;;;;21.10;33.40;;;;;;464769;256;1249;-39
2022/04/06 08:16:06;;;;;;;;;;;21.10;33.40;;;;;;464595;256;1333;-39
2022/04/06 08:18:07;;;;;;;;;;;21.10;33.40;;;;;;465521;256;954;-39
2022/04/06 08:20:09;;;;;;;;;;;21.10;33.40;;;;;;465085;256;879;-39
2022/04/06 08:22:10;;;;;;;;;;;21.10;33.50;;;;;;465394;256;1183;-39
2022/04/06 08:24:11;;;;;;;;;;;21.10;33.50;;;;;;464783;256;1135;-39
2022/04/06 08:26:13;;;;;;;;;;;21.10;33.50;;;;;;464743;256;2145;-39
2022/04/06 08:28:14;;;;;;;;;;;21.10;33.50;;;;;;465082;256;1203;-39
2022/04/06 08:30:16;;;;;;;;;;;21.10;33.50;;;;;;464715;256;1310;-39
2022/04/06 08:32:18;;;;;;;;;;;21.10;33.40;;;;;;464947;256;2172;-39
2022/04/06 08:34:18;;;;;;;;;;;21.10;33.50;;;;;;465504;256;2225;-39
2022/04/06 08:36:20;;;;;;;;;;;21.10;33.50;;;;;;464644;256;1106;-39
2022/04/06 08:38:26;;;;;;;;;;;21.10;32.60;;;;;;507823;233;1149;-41
2022/04/06 08:40:28;;;;;;;;;;;21.00;33.50;;;;;;499084;238;1186;-38
2022/04/06 08:42:31;;;;;;;;;;;21.10;33.60;;;;;;499112;237;1333;-38
2022/04/06 08:44:31;;;;;;;;;;;21.10;33.50;;;;;;499250;238;1353;-38
2022/04/06 08:46:34;;;;;;;;;;;21.10;33.60;;;;;;499721;237;1217;-38
2022/04/06 08:48:33;;;;;;;;;;;21.10;33.60;;;;;;499560;237;2337;-38
2022/04/06 08:50:35;;;;;;;;;;;21.10;33.60;;;;;;499489;237;1331;-38
2022/04/06 08:52:36;;;;;;;;;;;21.10;33.60;;;;;;499825;237;1212;-38
2022/04/06 08:54:39;;;;;;;;;;;21.10;33.60;;;;;;499871;237;1057;-38
2022/04/06 08:56:40;;;;;;;;;;;21.10;33.60;;;;;;499708;237;2213;-38
2022/04/06 08:58:41;;;;;;;;;;;21.10;33.60;;;;;;499741;237;1094;-38
2022/04/06 09:00:43;;;;;;;;;;;21.10;33.60;;;;;;499543;237;1308;-38
2022/04/06 09:02:44;;;;;;;;;;;21.10;33.60;;;;;;499832;237;1116;-38
2022/04/06 09:04:45;;;;;;;;;;;21.10;33.60;;;;;;499623;237;1099;-38
2022/04/06 09:06:47;;;;;;;;;;;21.10;33.70;;;;;;499476;237;1176;-38
2022/04/06 09:08:48;;;;;;;;;;;21.10;33.70;;;;;;499417;237;1059;-38
2022/04/06 09:10:49;;;;;;;;;;;21.10;33.70;;;;;;499468;237;1104;-38
2022/04/06 09:12:51;;;;;;;;;;;21.10;33.70;;;;;;499524;237;1205;-38
2022/04/06 09:14:52;;;;;;;;;;;21.10;33.70;;;;;;499640;237;1212;-38
2022/04/06 09:16:53;;;;;;;;;;;21.10;33.70;;;;;;499690;237;2175;-38
2022/04/06 09:18:55;;;;;;;;;;;21.10;33.70;;;;;;499619;237;1118;-38
2022/04/06 09:20:56;;;;;;;;;;;21.10;33.60;;;;;;499781;237;1072;-38
2022/04/06 09:22:58;;;;;;;;;;;21.10;33.60;;;;;;499674;237;1282;-38
2022/04/06 09:25:00;;;;;;;;;;;21.10;33.60;;;;;;499705;237;1127;-38
2022/04/06 09:27:00;;;;;;;;;;;21.20;33.60;;;;;;499650;237;2109;-38
2022/04/06 09:29:02;;;;;;;;;;;21.20;33.60;;;;;;499680;237;1124;-38
2022/04/06 09:31:03;;;;;;;;;;;21.10;33.70;;;;;;499428;237;1093;-38
2022/04/06 09:33:04;;;;;;;;;;;21.10;33.70;;;;;;499570;237;1473;-39
2022/04/06 09:35:06;;;;;;;;;;;21.10;33.70;;;;;;499829;237;1375;-39
2022/04/06 09:37:07;;;;;;;;;;;21.10;33.70;;;;;;499555;237;2124;-38
2022/04/06 09:39:08;;;;;;;;;;;21.10;33.70;;;;;;499597;237;1180;-38
2022/04/06 09:41:14;;;;;;;;;;;21.10;33.70;;;;;;499625;237;1213;-38
2022/04/06 09:43:11;;;;;;;;;;;21.10;33.70;;;;;;499225;238;2270;-38
2022/04/06 09:47:45;;;;;;;;;;;21.10;33.80;;;;;;488046;238;1237;-38
2022/04/06 09:49:46;;;;;;;;;;;21.10;33.90;;;;;;499584;237;1085;-38
2022/04/06 09:51:49;;;;;;;;;;;21.10;33.90;;;;;;499532;237;1273;-38
2022/04/06 09:53:50;;;;;;;;;;;21.10;33.90;;;;;;499896;237;2156;-38
2022/04/06 09:55:52;;;;;;;;;;;21.10;33.80;;;;;;499400;237;1369;-38
2022/04/06 09:57:52;;;;;;;;;;;21.10;33.80;;;;;;499401;237;2183;-38
2022/04/06 09:59:54;;;;;;;;;;;21.10;33.80;;;;;;499518;237;1036;-38
2022/04/06 10:01:57;;;;;;;;;;;21.10;33.80;;;;;;499587;237;1225;-38
2022/04/06 10:03:56;;;;;;;;;;;21.10;33.90;;;;;;499303;238;2038;-38
2022/04/06 10:05:58;;;;;;;;;;;21.10;33.90;;;;;;499354;237;1425;-38
2022/04/06 10:07:59;;;;;;;;;;;21.10;33.90;;;;;;499551;237;1200;-38
2022/04/06 10:10:02;;;;;;;;;;;21.10;33.90;;;;;;499640;237;1045;-38
2022/04/06 10:12:03;;;;;;;;;;;21.10;33.90;;;;;;499725;235;1243;-38
2022/04/06 10:14:05;;;;;;;;;;;21.10;33.80;;;;;;499465;237;1037;-38
2022/04/06 10:16:07;;;;;;;;;;;21.10;33.80;;;;;;499824;237;1344;-38
2022/04/06 10:18:07;;;;;;;;;;;21.10;33.80;;;;;;499293;237;2191;-38
2022/04/06 10:20:09;;;;;;;;;;;21.10;33.80;;;;;;499841;237;1102;-38
2022/04/06 10:22:10;;;;;;;;;;;21.10;33.90;;;;;;499600;236;1178;-38
2022/04/06 10:24:11;;;;;;;;;;;21.10;33.80;;;;;;499515;237;1215;-38
2022/04/06 10:26:13;;;;;;;;;;;21.10;33.90;;;;;;499485;237;1220;-38
2022/04/06 10:28:14;;;;;;;;;;;21.10;33.90;;;;;;499253;237;1101;-38
2022/04/06 10:30:16;;;;;;;;;;;21.10;33.90;;;;;;499266;237;1060;-38
2022/04/06 10:32:17;;;;;;;;;;;21.10;34.00;;;;;;499250;238;2241;-39
2022/04/06 10:34:19;;;;;;;;;;;21.10;33.90;;;;;;499415;237;1082;-38
2022/04/06 10:36:19;;;;;;;;;;;21.10;33.90;;;;;;499160;237;1521;-38
2022/04/06 10:38:22;;;;;;;;;;;21.10;33.90;;;;;;499369;237;2187;-38
2022/04/06 10:40:22;;;;;;;;;;;21.10;34.00;;;;;;499381;237;1221;-38
2022/04/06 10:42:24;;;;;;;;;;;21.10;34.00;;;;;;499394;237;1146;-38
2022/04/06 10:44:25;;;;;;;;;;;21.10;34.00;;;;;;499544;238;1931;-38
2022/04/06 10:46:26;;;;;;;;;;;21.10;34.10;;;;;;499532;237;1213;-38
2022/04/06 10:48:27;;;;;;;;;;;21.10;34.00;;;;;;499517;237;1056;-39
2022/04/06 10:50:28;;;;;;;;;;;21.10;34.00;;;;;;499522;237;1083;-38
2022/04/06 10:52:30;;;;;;;;;;;21.10;33.90;;;;;;499362;237;1306;-38
2022/04/06 10:54:34;;;;;;;;;;;21.10;34.00;;;;;;499401;237;1190;-38
2022/04/06 10:56:32;;;;;;;;;;;21.10;34.10;;;;;;499326;238;2281;-38
2022/04/06 10:58:34;;;;;;;;;;;21.10;34.10;;;;;;499380;237;2180;-38
2022/04/06 11:00:39;;;;;;;;;;;21.10;34.10;;;;;;499547;237;1055;-38
2022/04/06 11:02:38;;;;;;;;;;;21.10;34.10;;;;;;499348;238;2026;-38
2022/04/06 11:04:38;;;;;;;;;;;21.10;34.10;;;;;;499527;237;2018;-38
2022/04/06 11:06:39;;;;;;;;;;;21.10;34.20;;;;;;499373;237;1225;-38
2022/04/06 11:11:00;;;;;;;;;;;21.10;34.20;;;;;;499470;238;1217;-38
2022/04/06 11:13:01;;;;;;;;;;;21.10;34.20;;;;;;499591;237;996;-38
2022/04/06 11:15:03;;;;;;;;;;;21.00;34.10;;;;;;499413;237;767;-38
2022/04/06 11:17:04;;;;;;;;;;;21.00;34.20;;;;;;499447;237;1160;-38
2022/04/06 11:19:05;;;;;;;;;;;21.00;34.10;;;;;;499350;237;2179;-38
2022/04/06 11:21:07;;;;;;;;;;;21.10;34.10;;;;;;499386;237;1488;-38
2022/04/06 11:23:09;;;;;;;;;;;21.10;34.20;;;;;;499889;237;1123;-38
2022/04/06 11:25:09;;;;;;;;;;;21.10;34.20;;;;;;499363;237;1674;-38
2022/04/06 11:27:11;;;;;;;;;;;21.10;34.10;;;;;;499409;237;1265;-38
2022/04/06 11:29:12;;;;;;;;;;;21.10;34.10;;;;;;499485;237;1066;-38
2022/04/06 11:31:14;;;;;;;;;;;21.10;34.20;;;;;;500049;235;1518;-38
2022/04/06 11:33:16;;;;;;;;;;;21.10;34.20;;;;;;499936;237;2193;-38
2022/04/06 11:35:16;;;;;;;;;;;21.10;34.20;;;;;;499931;238;1359;-38
2022/04/06 11:37:17;;;;;;;;;;;21.10;34.30;;;;;;499577;237;1188;-39
2022/04/06 11:39:19;;;;;;;;;;;21.10;34.30;;;;;;498961;237;2180;-38
2022/04/06 11:41:20;;;;;;;;;;;21.10;34.20;;;;;;497438;239;1489;-38
2022/04/06 11:43:21;;;;;;;;;;;21.10;34.20;;;;;;497697;239;1028;-38
2022/04/06 11:45:23;;;;;;;;;;;21.10;34.20;;;;;;497450;239;787;-38
2022/04/06 11:47:24;;;;;;;;;;;21.10;34.20;;;;;;497151;239;981;-38
2022/04/06 11:49:26;;;;;;;;;;;21.10;34.20;;;;;;497646;239;1045;-38
2022/04/06 11:51:27;;;;;;;;;;;21.10;34.20;;;;;;497251;236;1999;-38
2022/04/06 11:53:28;;;;;;;;;;;21.10;34.20;;;;;;497521;239;937;-39
2022/04/06 11:55:30;;;;;;;;;;;21.10;34.30;;;;;;497430;239;1153;-38
2022/04/06 11:57:31;;;;;;;;;;;21.00;34.20;;;;;;497262;239;2181;-38
2022/04/06 11:59:32;;;;;;;;;;;21.10;34.30;;;;;;497370;239;1191;-38
2022/04/06 12:01:34;;;;;;;;;;;21.10;34.30;;;;;;497341;236;1349;-38
2022/04/06 12:03:35;;;;;;;;;;;21.10;34.30;;;;;;497402;239;1057;-38
2022/04/06 12:05:36;;;;;;;;;;;21.00;34.30;;;;;;497482;239;1435;-38
2022/04/06 12:07:37;;;;;;;;;;;21.00;34.30;;;;;;497429;239;1105;-38